Time;durP1;ratioP1;P1;durP2;ratioP2;P2;SDS_P1;SDS_P2;PMS_P1;PMS_P2;Temp;Humidity;BMP_temperature;BMP_pressure;BME280_temperature;BME280_humidity;BME280_pressure;Samples;Min_cycle;Max_cycle;Signal;HPM_P1;HPM_P2
2023/12/23 00:01:21;;;;;;;;;;;;;;;18.88;39.91;99091.25;5076333;28;1145;-55
2023/12/23 00:03:46;;;;;;;;;;;;;;;17.58;42.69;99091.03;5077326;28;1093;-56
2023/12/23 00:06:12;;;;;;;;;;;;;;;17.19;43.19;99095.47;5076934;28;1058;-55
2023/12/23 00:08:37;;;;;;;;;;;;;;;18.05;42.08;99106.97;5077630;28;1906;-55
2023/12/23 00:11:03;;;;;;;;;;;;;;;17.32;43.17;99105.53;5072532;28;1286;-55
2023/12/23 00:13:29;;;;;;;;;;;;;;;18.13;41.99;99117.94;5069088;28;1209;-55
2023/12/23 00:15:54;;;;;;;;;;;;;;;18.34;40.94;99119.22;5064237;28;1349;-55
2023/12/23 00:18:20;;;;;;;;;;;;;;;17.42;42.94;99110.72;5077479;28;1067;-56
2023/12/23 00:20:45;;;;;;;;;;;;;;;18.84;40.47;99112.31;5071923;28;1103;-56
2023/12/23 00:23:12;;;;;;;;;;;;;;;17.88;42.30;99118.72;5065431;28;1273;-56
2023/12/23 00:25:38;;;;;;;;;;;;;;;17.38;42.90;99130.94;5062519;28;1063;-56
2023/12/23 00:28:04;;;;;;;;;;;;;;;18.09;41.82;99140.91;5065251;28;1047;-56
2023/12/23 00:30:29;;;;;;;;;;;;;;;17.71;42.42;99134.06;5075991;28;1961;-55
2023/12/23 00:32:55;;;;;;;;;;;;;;;17.17;43.22;99126.00;5047343;28;1115;-55
2023/12/23 00:35:20;;;;;;;;;;;;;;;17.20;43.37;99135.56;5061892;28;1032;-55
2023/12/23 00:37:46;;;;;;;;;;;;;;;18.21;41.53;99132.03;5059241;28;1115;-55
2023/12/23 00:40:12;;;;;;;;;;;;;;;17.30;43.46;99135.25;5045730;28;1201;-55
2023/12/23 00:42:37;;;;;;;;;;;;;;;19.02;39.94;99135.13;5077090;28;1119;-55
2023/12/23 00:45:04;;;;;;;;;;;;;;;18.15;41.76;99138.81;5076466;28;1102;-56
2023/12/23 00:47:30;;;;;;;;;;;;;;;17.47;42.92;99134.50;5070725;28;1289;-56
2023/12/23 00:49:55;;;;;;;;;;;;;;;17.14;43.35;99131.31;5063212;28;1910;-55
2023/12/23 00:52:21;;;;;;;;;;;;;;;18.10;41.73;99120.53;5059070;28;1142;-55
2023/12/23 00:54:46;;;;;;;;;;;;;;;17.32;43.18;99113.78;5058933;28;1526;-55
2023/12/23 00:57:12;;;;;;;;;;;;;;;18.67;40.73;99116.72;5076690;28;1066;-55
2023/12/23 00:59:38;;;;;;;;;;;;;;;17.94;41.96;99109.22;5075763;28;1155;-55
2023/12/23 01:02:03;;;;;;;;;;;;;;;17.21;43.10;99102.28;5076775;28;1071;-55
2023/12/23 01:04:29;;;;;;;;;;;;;;;18.16;41.81;99115.66;5060356;28;1182;-55
2023/12/23 01:06:54;;;;;;;;;;;;;;;17.28;43.44;99115.56;5047092;28;1135;-56
2023/12/23 01:09:20;;;;;;;;;;;;;;;17.05;43.08;99121.09;5060963;28;1917;-56
2023/12/23 01:11:45;;;;;;;;;;;;;;;17.60;42.77;99124.53;5070757;28;1162;-56
2023/12/23 01:14:11;;;;;;;;;;;;;;;17.53;43.20;99127.75;5076462;28;1067;-56
2023/12/23 01:16:36;;;;;;;;;;;;;;;17.97;42.33;99138.81;5058537;28;1118;-56
2023/12/23 01:19:03;;;;;;;;;;;;;;;19.06;39.84;99114.84;5076123;28;1054;-56
2023/12/23 01:21:28;;;;;;;;;;;;;;;17.70;42.70;99113.22;5048026;28;1351;-56
2023/12/23 01:23:54;;;;;;;;;;;;;;;17.27;42.87;99120.22;5059979;28;1095;-56
2023/12/23 01:26:20;;;;;;;;;;;;;;;18.34;41.40;99117.28;5076322;28;1159;-56
2023/12/23 01:28:45;;;;;;;;;;;;;;;17.53;43.07;99121.41;5076467;28;1914;-56
2023/12/23 01:31:11;;;;;;;;;;;;;;;19.07;40.03;99116.47;5076483;28;1074;-57
2023/12/23 01:33:36;;;;;;;;;;;;;;;15.88;46.96;99131.97;5075597;28;1062;-57
2023/12/23 01:36:05;;;;;;;;;;;;;;;17.79;42.99;99118.72;5070173;28;1119;-57
2023/12/23 01:38:31;;;;;;;;;;;;;;;19.32;39.59;99133.19;5073257;28;1146;-56
2023/12/23 01:40:57;;;;;;;;;;;;;;;14.99;49.42;99139.50;5076237;28;1127;-55
2023/12/23 01:43:22;;;;;;;;;;;;;;;18.26;42.07;99140.13;5071946;28;1063;-56
2023/12/23 01:45:48;;;;;;;;;;;;;;;18.71;40.78;99147.19;5048871;28;1406;-56
2023/12/23 01:48:15;;;;;;;;;;;;;;;17.63;42.95;99132.13;5055369;28;1131;-55
2023/12/23 01:50:40;;;;;;;;;;;;;;;17.29;43.30;99125.38;5058407;28;1906;-56
2023/12/23 01:53:06;;;;;;;;;;;;;;;17.04;43.42;99127.75;5040558;28;1175;-55
2023/12/23 01:55:31;;;;;;;;;;;;;;;17.10;43.52;99117.44;5038173;28;1115;-56
2023/12/23 01:57:57;;;;;;;;;;;;;;;17.65;42.89;99127.09;5055360;28;1164;-56
2023/12/23 02:00:23;;;;;;;;;;;;;;;17.12;44.04;99117.09;5050645;28;1293;-57
2023/12/23 02:02:49;;;;;;;;;;;;;;;18.81;40.72;99113.78;5069740;28;1119;-56
2023/12/23 02:05:14;;;;;;;;;;;;;;;17.66;43.01;99103.97;5066788;28;1126;-56
2023/12/23 02:07:42;;;;;;;;;;;;;;;17.19;43.34;99098.22;5038192;28;1254;-55
2023/12/23 02:10:08;;;;;;;;;;;;;;;16.94;43.54;99089.56;5054887;28;1914;-56
2023/12/23 02:12:41;;;;;;;;;;;;;;;18.32;41.72;99086.53;5052268;28;1115;-56
2023/12/23 02:15:09;;;;;;;;;;;;;;;17.28;43.51;99085.34;5055632;28;1038;-56
2023/12/23 02:17:35;;;;;;;;;;;;;;;18.29;41.68;99076.19;5054010;28;1143;-56
2023/12/23 02:20:01;;;;;;;;;;;;;;;17.95;42.37;99067.63;5057813;28;1062;-55
2023/12/23 02:22:26;;;;;;;;;;;;;;;17.32;43.49;99075.31;5052981;28;1130;-56
2023/12/23 02:24:51;;;;;;;;;;;;;;;17.52;43.47;99075.84;5049734;28;1179;-56
2023/12/23 02:27:19;;;;;;;;;;;;;;;17.70;42.89;99071.97;5052699;28;1169;-56
2023/12/23 02:29:44;;;;;;;;;;;;;;;17.18;43.67;99060.88;5050676;28;2041;-56
2023/12/23 02:32:10;;;;;;;;;;;;;;;17.29;43.64;99062.19;5028711;28;1158;-56
2023/12/23 02:34:35;;;;;;;;;;;;;;;17.77;42.72;99050.31;5047359;28;1046;-56
2023/12/23 02:37:01;;;;;;;;;;;;;;;17.00;43.99;99065.53;5037685;28;1119;-56
2023/12/23 02:39:26;;;;;;;;;;;;;;;18.71;40.73;99065.38;5039942;28;1127;-56
2023/12/23 02:41:52;;;;;;;;;;;;;;;17.74;42.72;99056.47;5057442;28;1223;-56
2023/12/23 02:44:17;;;;;;;;;;;;;;;17.18;43.48;99060.88;5059426;28;1056;-56
2023/12/23 02:46:43;;;;;;;;;;;;;;;16.89;43.81;99043.84;5054490;28;1207;-56
2023/12/23 02:49:09;;;;;;;;;;;;;;;18.21;41.81;99046.72;5039855;28;1902;-56
2023/12/23 02:51:34;;;;;;;;;;;;;;;17.17;43.82;99029.88;5057150;28;1163;-56
2023/12/23 02:54:00;;;;;;;;;;;;;;;16.88;43.54;99027.69;5059040;28;1087;-56
2023/12/23 02:56:26;;;;;;;;;;;;;;;18.28;41.94;99036.03;5054144;28;1089;-55
2023/12/23 02:58:51;;;;;;;;;;;;;;;17.27;43.82;99039.75;5039078;28;1008;-56
2023/12/23 03:01:20;;;;;;;;;;;;;;;17.71;43.29;99057.09;5056316;28;1143;-55
2023/12/23 03:03:45;;;;;;;;;;;;;;;17.71;42.85;99068.09;5047461;28;1147;-55
2023/12/23 03:06:14;;;;;;;;;;;;;;;17.07;43.83;99052.97;5051391;28;1341;-55
2023/12/23 03:08:40;;;;;;;;;;;;;;;17.87;42.89;99056.63;5069528;28;1980;-55
2023/12/23 03:11:05;;;;;;;;;;;;;;;17.55;43.17;99053.22;5055377;28;2051;-57
2023/12/23 03:13:31;;;;;;;;;;;;;;;17.04;43.58;99056.34;5070195;28;834;-56
2023/12/23 03:15:56;;;;;;;;;;;;;;;18.52;41.20;99051.97;5060891;28;1083;-56
2023/12/23 03:18:22;;;;;;;;;;;;;;;17.35;43.61;99055.44;5051789;28;1116;-56
2023/12/23 03:20:48;;;;;;;;;;;;;;;17.21;43.86;99060.28;5040933;28;1128;-56
2023/12/23 03:23:14;;;;;;;;;;;;;;;18.01;42.18;99057.28;5060630;28;1219;-56
2023/12/23 03:25:39;;;;;;;;;;;;;;;17.17;43.81;99059.28;5070379;28;1051;-56
2023/12/23 03:28:05;;;;;;;;;;;;;;;18.40;41.62;99062.88;5077714;28;1079;-56
2023/12/23 03:30:30;;;;;;;;;;;;;;;17.66;42.66;99048.22;5057512;28;1914;-56
2023/12/23 03:32:56;;;;;;;;;;;;;;;17.11;43.67;99047.66;5066613;28;1504;-56
2023/12/23 03:35:22;;;;;;;;;;;;;;;18.46;41.23;99048.59;5076930;28;1151;-57
2023/12/23 03:37:47;;;;;;;;;;;;;;;17.45;43.26;99027.66;5076744;28;1159;-57
2023/12/23 03:40:13;;;;;;;;;;;;;;;17.25;43.77;99025.50;5077771;28;1145;-56
2023/12/23 03:42:40;;;;;;;;;;;;;;;17.99;42.24;99023.78;5049376;28;1148;-57
2023/12/23 03:45:06;;;;;;;;;;;;;;;17.17;43.63;99026.34;5075977;28;1039;-55
2023/12/23 03:47:32;;;;;;;;;;;;;;;18.73;40.78;99030.06;5077778;28;1256;-55
2023/12/23 03:49:57;;;;;;;;;;;;;;;17.76;42.39;99034.94;5054892;28;1926;-55
2023/12/23 03:52:23;;;;;;;;;;;;;;;17.10;43.55;99035.84;5051412;28;1112;-55
2023/12/23 03:54:48;;;;;;;;;;;;;;;17.29;43.28;99040.22;5073114;28;1182;-55
2023/12/23 03:57:14;;;;;;;;;;;;;;;18.16;41.78;99050.47;5069254;28;1079;-58
2023/12/23 03:59:40;;;;;;;;;;;;;;;17.33;43.45;99041.22;5059730;28;1092;-56
2023/12/23 04:02:05;;;;;;;;;;;;;;;17.31;43.75;99057.22;5057157;28;1103;-56
2023/12/23 04:04:31;;;;;;;;;;;;;;;18.07;41.89;99058.72;5055202;28;1221;-55
2023/12/23 04:06:57;;;;;;;;;;;;;;;17.19;43.48;99070.75;5069346;28;1094;-55
2023/12/23 04:09:23;;;;;;;;;;;;;;;16.87;43.89;99078.22;5054821;28;1913;-56
2023/12/23 04:11:48;;;;;;;;;;;;;;;18.34;41.53;99073.25;5051181;28;1292;-57
2023/12/23 04:14:14;;;;;;;;;;;;;;;17.35;43.42;99060.94;5054867;28;1278;-55
2023/12/23 04:16:39;;;;;;;;;;;;;;;17.55;43.18;99064.19;5068878;28;1223;-55
2023/12/23 04:19:05;;;;;;;;;;;;;;;18.04;41.91;99058.56;5059120;28;1157;-63
2023/12/23 04:21:30;;;;;;;;;;;;;;;17.15;43.47;99047.81;5059478;28;1318;-59
2023/12/23 04:23:56;;;;;;;;;;;;;;;16.97;43.59;99057.91;5050622;28;1179;-57
2023/12/23 04:26:22;;;;;;;;;;;;;;;17.73;42.76;99071.31;5059069;28;1127;-59
2023/12/23 04:28:47;;;;;;;;;;;;;;;17.03;43.90;99062.97;5059238;28;1953;-59
2023/12/23 04:31:13;;;;;;;;;;;;;;;17.89;42.43;99077.16;5074883;28;1087;-59
2023/12/23 04:33:38;;;;;;;;;;;;;;;17.47;43.16;99081.50;5039341;28;1157;-59
2023/12/23 04:36:04;;;;;;;;;;;;;;;17.12;44.04;99084.16;5070633;28;1111;-58
2023/12/23 04:38:31;;;;;;;;;;;;;;;18.58;40.63;99071.88;5033214;28;1528;-59
2023/12/23 04:40:56;;;;;;;;;;;;;;;17.39;43.31;99075.66;5067669;28;1104;-57
2023/12/23 04:43:23;;;;;;;;;;;;;;;16.98;43.59;99060.34;5058346;28;1276;-57
2023/12/23 04:45:49;;;;;;;;;;;;;;;17.56;42.89;99060.34;5058837;28;1378;-58
2023/12/23 04:48:14;;;;;;;;;;;;;;;17.46;43.25;99061.44;5057447;28;2518;-58
2023/12/23 04:50:40;;;;;;;;;;;;;;;18.06;42.10;99062.63;5061197;28;1933;-56
2023/12/23 04:53:05;;;;;;;;;;;;;;;19.02;39.64;99060.75;5042460;28;1291;-57
2023/12/23 04:55:31;;;;;;;;;;;;;;;17.66;42.77;99071.00;5048094;28;1323;-57
2023/12/23 04:57:57;;;;;;;;;;;;;;;17.27;43.29;99080.97;5073115;28;1134;-57
2023/12/23 05:00:22;;;;;;;;;;;;;;;18.49;41.13;99073.88;5057524;28;1170;-57
2023/12/23 05:02:48;;;;;;;;;;;;;;;17.58;42.65;99055.31;5044898;28;1306;-56
2023/12/23 05:05:13;;;;;;;;;;;;;;;17.13;43.57;99050.88;5076243;28;1082;-56
2023/12/23 05:07:39;;;;;;;;;;;;;;;18.39;41.44;99042.00;5045001;28;1208;-55
2023/12/23 05:10:04;;;;;;;;;;;;;;;17.58;42.83;99025.88;5076078;28;1905;-58
2023/12/23 05:12:32;;;;;;;;;;;;;;;17.08;43.33;99018.88;5045122;28;1152;-56
2023/12/23 05:14:59;;;;;;;;;;;;;;;18.37;41.32;99008.50;5041209;28;1401;-56
2023/12/23 05:17:24;;;;;;;;;;;;;;;17.33;43.04;99001.94;5067520;28;1048;-60
2023/12/23 05:19:50;;;;;;;;;;;;;;;18.85;40.10;98998.25;5053202;28;2526;-60
2023/12/23 05:22:16;;;;;;;;;;;;;;;18.19;41.34;98993.97;5075582;28;1035;-56
2023/12/23 05:24:42;;;;;;;;;;;;;;;15.65;47.95;98994.06;5057250;28;1027;-57
2023/12/23 05:27:09;;;;;;;;;;;;;;;17.54;42.90;98996.63;5041103;28;1301;-58
2023/12/23 05:29:34;;;;;;;;;;;;;;;17.25;43.42;98995.31;5055846;28;1984;-57
2023/12/23 05:32:03;;;;;;;;;;;;;;;16.87;44.41;98991.19;5068869;28;1308;-55
2023/12/23 05:34:28;;;;;;;;;;;;;;;16.56;44.83;98985.75;5064096;28;1042;-56
2023/12/23 05:36:54;;;;;;;;;;;;;;;16.49;45.12;98974.41;5073544;28;1057;-56
2023/12/23 05:39:19;;;;;;;;;;;;;;;16.24;45.80;98983.03;5064617;28;892;-54
2023/12/23 05:41:45;;;;;;;;;;;;;;;16.12;46.09;98982.81;5072800;28;980;-54
2023/12/23 05:44:10;;;;;;;;;;;;;;;16.00;46.09;98975.13;5075301;28;1162;-56
2023/12/23 05:46:36;;;;;;;;;;;;;;;15.88;46.50;98972.97;5075354;28;1186;-55
2023/12/23 05:49:01;;;;;;;;;;;;;;;15.72;46.60;98978.03;5068644;28;1980;-55
2023/12/23 05:51:27;;;;;;;;;;;;;;;16.09;46.21;98994.41;5073959;28;920;-54
2023/12/23 05:53:52;;;;;;;;;;;;;;;17.29;43.09;99001.78;5067165;28;1150;-54
2023/12/23 05:56:18;;;;;;;;;;;;;;;16.44;44.91;99027.50;5076459;28;1179;-53
2023/12/23 05:58:43;;;;;;;;;;;;;;;16.01;45.86;99012.41;5069076;28;1111;-53
2023/12/23 06:01:09;;;;;;;;;;;;;;;15.78;46.35;99018.97;5073378;28;1235;-53
2023/12/23 06:03:34;;;;;;;;;;;;;;;15.76;46.54;99013.81;5067713;28;1430;-54
2023/12/23 06:06:03;;;;;;;;;;;;;;;17.31;43.19;98993.22;5073473;28;1036;-54
2023/12/23 06:08:29;;;;;;;;;;;;;;;16.56;44.40;98985.75;5070471;28;1098;-53
2023/12/23 06:10:55;;;;;;;;;;;;;;;16.03;45.58;98980.03;5079926;28;1968;-55
2023/12/23 06:13:20;;;;;;;;;;;;;;;15.72;46.48;98969.81;5079608;28;1178;-54
2023/12/23 06:15:46;;;;;;;;;;;;;;;16.06;45.90;98957.44;5077848;28;841;-55
2023/12/23 06:18:12;;;;;;;;;;;;;;;17.45;42.62;98950.72;5079389;28;1167;-58
2023/12/23 06:20:37;;;;;;;;;;;;;;;16.56;44.33;98950.91;5079333;28;1011;-56
2023/12/23 06:23:03;;;;;;;;;;;;;;;16.07;45.37;98952.75;5067973;28;1146;-55
2023/12/23 06:25:29;;;;;;;;;;;;;;;15.91;46.01;98955.09;5076713;28;1127;-55
2023/12/23 06:27:55;;;;;;;;;;;;;;;17.37;42.66;98965.25;5078968;28;861;-55
2023/12/23 06:30:20;;;;;;;;;;;;;;;16.71;43.89;98965.31;5078466;28;1968;-55
2023/12/23 06:32:46;;;;;;;;;;;;;;;16.17;45.11;98957.16;5079465;28;1099;-55
2023/12/23 06:35:11;;;;;;;;;;;;;;;15.87;45.94;98954.13;5074951;28;1159;-53
2023/12/23 06:37:37;;;;;;;;;;;;;;;16.31;45.06;98946.09;5069333;28;1169;-54
2023/12/23 06:40:02;;;;;;;;;;;;;;;17.53;42.34;98956.53;5078552;28;928;-56
2023/12/23 06:42:28;;;;;;;;;;;;;;;16.58;44.43;98956.88;5069657;28;1047;-56
2023/12/23 06:44:53;;;;;;;;;;;;;;;16.04;45.49;98948.72;5074510;28;1020;-55
2023/12/23 06:47:19;;;;;;;;;;;;;;;15.83;46.22;98942.97;5078758;28;1074;-56
2023/12/23 06:49:45;;;;;;;;;;;;;;;15.65;46.71;98958.44;5078733;28;1980;-56
2023/12/23 06:52:10;;;;;;;;;;;;;;;17.20;43.19;98966.06;5068170;28;1071;-56
2023/12/23 06:54:36;;;;;;;;;;;;;;;17.04;43.21;98964.91;5064885;28;1117;-57
2023/12/23 06:57:01;;;;;;;;;;;;;;;16.29;44.84;98979.34;5078623;28;1453;-55
2023/12/23 06:59:27;;;;;;;;;;;;;;;15.94;45.90;98978.34;5075605;28;988;-55
2023/12/23 07:01:52;;;;;;;;;;;;;;;16.89;43.79;98985.41;5068131;28;1048;-55
2023/12/23 07:04:17;;;;;;;;;;;;;;;17.10;42.97;98997.38;5061349;28;1119;-53
2023/12/23 07:06:43;;;;;;;;;;;;;;;16.33;44.77;98972.09;5057630;28;1114;-56
2023/12/23 07:09:09;;;;;;;;;;;;;;;16.02;45.72;98972.09;5074616;28;1910;-55
2023/12/23 07:11:35;;;;;;;;;;;;;;;16.83;43.94;98970.16;5070736;28;1063;-56
2023/12/23 07:14:00;;;;;;;;;;;;;;;17.47;42.10;98955.09;5065282;28;1142;-54
2023/12/23 07:16:26;;;;;;;;;;;;;;;16.52;44.49;98952.66;5073590;28;1119;-57
2023/12/23 07:18:51;;;;;;;;;;;;;;;16.10;45.27;98951.34;5069843;28;1122;-57
2023/12/23 07:21:17;;;;;;;;;;;;;;;15.88;45.87;98953.00;5073587;28;1120;-58
2023/12/23 07:23:42;;;;;;;;;;;;;;;16.72;44.00;98956.75;5062773;28;1378;-56
2023/12/23 07:26:10;;;;;;;;;;;;;;;17.30;42.58;98959.44;5071030;28;1055;-58
2023/12/23 07:28:36;;;;;;;;;;;;;;;16.38;44.67;98951.94;5067082;28;1092;-58
2023/12/23 07:31:01;;;;;;;;;;;;;;;16.04;45.42;98940.50;5077412;28;1972;-57
2023/12/23 07:33:26;;;;;;;;;;;;;;;15.86;46.09;98928.63;5070711;28;1075;-56
2023/12/23 07:35:52;;;;;;;;;;;;;;;16.64;44.27;98923.78;5077572;28;1106;-56
2023/12/23 07:38:17;;;;;;;;;;;;;;;17.55;42.04;98927.59;5075456;28;1177;-56
2023/12/23 07:40:43;;;;;;;;;;;;;;;16.51;44.18;98934.56;5071176;28;2615;-59
2023/12/23 07:43:08;;;;;;;;;;;;;;;16.14;45.14;98927.66;5063208;28;1094;-57
2023/12/23 07:45:36;;;;;;;;;;;;;;;15.84;45.96;98924.59;5058917;28;1245;-57
2023/12/23 07:48:01;;;;;;;;;;;;;;;16.69;43.91;98918.97;5077153;28;1050;-54
2023/12/23 07:50:27;;;;;;;;;;;;;;;17.41;42.15;98919.53;5076517;28;1913;-57
2023/12/23 07:52:52;;;;;;;;;;;;;;;16.48;44.08;98912.44;5065889;28;1115;-62
2023/12/23 07:55:18;;;;;;;;;;;;;;;16.04;45.40;98904.84;5074619;28;995;-62
2023/12/23 07:57:45;;;;;;;;;;;;;;;16.40;44.68;98906.63;5077400;28;1123;-58
2023/12/23 08:00:11;;;;;;;;;;;;;;;17.46;41.89;98918.56;5077181;28;1102;-59
2023/12/23 08:02:36;;;;;;;;;;;;;;;16.50;44.02;98930.19;5074386;28;1396;-54
2023/12/23 08:05:02;;;;;;;;;;;;;;;16.10;45.03;98934.88;5052735;28;1134;-53
2023/12/23 08:07:28;;;;;;;;;;;;;;;16.10;45.37;98918.44;5068101;28;1214;-55
2023/12/23 08:09:53;;;;;;;;;;;;;;;17.53;41.89;98915.31;5072100;28;1917;-56
2023/12/23 08:12:19;;;;;;;;;;;;;;;16.63;43.73;98930.41;5059407;28;2194;-58
2023/12/23 08:14:44;;;;;;;;;;;;;;;16.19;44.88;98938.50;5072398;28;1068;-56
2023/12/23 08:17:11;;;;;;;;;;;;;;;15.93;45.40;98943.81;5056389;28;1028;-55
2023/12/23 08:19:36;;;;;;;;;;;;;;;17.35;42.30;98969.44;5074570;28;1095;-53
2023/12/23 08:22:02;;;;;;;;;;;;;;;16.77;43.18;98967.59;5065660;28;976;-54
2023/12/23 08:24:28;;;;;;;;;;;;;;;16.19;44.68;98999.63;5074682;28;1028;-57
2023/12/23 08:26:53;;;;;;;;;;;;;;;15.88;45.28;99002.34;5073044;28;1445;-59
2023/12/23 08:29:19;;;;;;;;;;;;;;;15.77;45.66;99014.63;5066505;28;1929;-57
2023/12/23 08:31:44;;;;;;;;;;;;;;;17.20;42.38;99014.69;5076269;28;1059;-56
2023/12/23 08:34:10;;;;;;;;;;;;;;;17.18;42.23;99025.19;5076541;28;1125;-58
2023/12/23 08:36:35;;;;;;;;;;;;;;;16.37;44.05;99025.22;5074884;28;1023;-56
2023/12/23 08:39:01;;;;;;;;;;;;;;;16.03;44.87;99003.88;5072792;28;1151;-57
2023/12/23 08:41:26;;;;;;;;;;;;;;;15.78;45.38;99005.28;5071866;28;1978;-57
2023/12/23 08:43:52;;;;;;;;;;;;;;;17.18;42.54;98994.97;5068517;28;1121;-59
2023/12/23 08:46:17;;;;;;;;;;;;;;;16.90;42.69;98996.06;5070712;28;1151;-59
2023/12/23 08:48:43;;;;;;;;;;;;;;;16.22;44.23;98970.75;5075869;28;1988;-60
2023/12/23 08:51:08;;;;;;;;;;;;;;;15.96;44.85;98951.41;5073514;28;1053;-55
2023/12/23 08:53:35;;;;;;;;;;;;;;;16.75;43.29;98938.84;5076035;28;1210;-58
2023/12/23 08:56:00;;;;;;;;;;;;;;;17.21;41.85;98933.94;5076148;28;1024;-58
2023/12/23 08:58:26;;;;;;;;;;;;;;;16.43;43.84;98936.16;5067887;28;1035;-56
2023/12/23 09:00:52;;;;;;;;;;;;;;;15.95;44.82;98938.81;5055914;28;1012;-58
2023/12/23 09:03:17;;;;;;;;;;;;;;;15.77;45.19;98946.09;5059426;28;1095;-58
2023/12/23 09:05:43;;;;;;;;;;;;;;;16.72;43.40;98953.19;5071235;28;1185;-56
2023/12/23 09:08:08;;;;;;;;;;;;;;;17.52;41.36;98944.72;5075801;28;1044;-56
2023/12/23 09:10:34;;;;;;;;;;;;;;;16.54;43.53;98944.09;5062095;28;1901;-62
2023/12/23 09:12:59;;;;;;;;;;;;;;;16.12;44.36;98932.63;5063721;28;2562;-58
2023/12/23 09:15:25;;;;;;;;;;;;;;;15.86;45.20;98927.81;5065300;28;1096;-60
2023/12/23 09:17:51;;;;;;;;;;;;;;;17.26;42.03;98936.50;5068656;28;1071;-57
2023/12/23 09:20:16;;;;;;;;;;;;;;;16.90;42.62;98946.66;5069329;28;996;-59
2023/12/23 09:22:42;;;;;;;;;;;;;;;16.22;44.08;98966.06;5063170;28;1035;-59
2023/12/23 09:25:07;;;;;;;;;;;;;;;15.90;44.96;98956.22;5075559;28;1023;-60
2023/12/23 09:27:33;;;;;;;;;;;;;;;15.77;45.53;98952.41;5069853;28;1419;-58
2023/12/23 09:29:59;;;;;;;;;;;;;;;17.28;41.95;98945.22;5070130;28;1901;-61
2023/12/23 09:32:25;;;;;;;;;;;;;;;16.80;42.89;98954.34;5076115;28;1032;-62
2023/12/23 09:34:53;;;;;;;;;;;;;;;16.15;44.35;98960.22;5075935;28;932;-58
2023/12/23 09:37:19;;;;;;;;;;;;;;;15.85;45.21;98950.88;5075459;28;1032;-57
2023/12/23 09:39:44;;;;;;;;;;;;;;;15.69;45.71;98969.59;5060902;28;1392;-58
2023/12/23 09:42:10;;;;;;;;;;;;;;;17.18;42.16;98962.00;5063629;28;1875;-57
2023/12/23 09:44:36;;;;;;;;;;;;;;;16.65;43.42;98944.59;5069181;28;1236;-56
2023/12/23 09:47:01;;;;;;;;;;;;;;;16.15;44.37;98965.72;5050293;28;1102;-58
2023/12/23 09:49:27;;;;;;;;;;;;;;;15.91;45.28;98955.09;5075095;28;1902;-58
2023/12/23 09:51:54;;;;;;;;;;;;;;;17.29;42.11;98949.56;5075282;28;1341;-57
2023/12/23 09:54:20;;;;;;;;;;;;;;;16.80;43.12;98957.88;5052608;28;1003;-56
2023/12/23 09:56:46;;;;;;;;;;;;;;;16.23;44.38;98953.19;5055197;28;1027;-56
2023/12/23 09:59:12;;;;;;;;;;;;;;;15.84;45.17;98941.03;5055960;28;1341;-56
2023/12/23 10:01:37;;;;;;;;;;;;;;;15.79;45.35;98930.16;5074759;28;1256;-56
2023/12/23 10:04:03;;;;;;;;;;;;;;;17.31;41.89;98930.84;5074331;28;1323;-56
2023/12/23 10:06:28;;;;;;;;;;;;;;;17.15;42.24;98918.72;5069620;28;1169;-57
2023/12/23 10:08:54;;;;;;;;;;;;;;;16.42;44.06;98928.22;5067063;28;1956;-55
2023/12/23 10:11:19;;;;;;;;;;;;;;;15.99;44.97;98905.00;5066671;28;2237;-56
2023/12/23 10:13:45;;;;;;;;;;;;;;;15.79;45.49;98913.72;5070538;28;1083;-56
2023/12/23 10:16:11;;;;;;;;;;;;;;;16.95;42.79;98931.94;5066393;28;1210;-57
2023/12/23 10:18:39;;;;;;;;;;;;;;;17.30;41.87;98904.50;5058438;28;1064;-58
2023/12/23 10:21:05;;;;;;;;;;;;;;;16.36;43.84;98889.16;5075100;28;1357;-56
2023/12/23 10:23:30;;;;;;;;;;;;;;;16.04;44.75;98893.88;5074824;28;1288;-57
2023/12/23 10:25:56;;;;;;;;;;;;;;;16.14;44.75;98916.69;5055699;28;1350;-56
2023/12/23 10:28:22;;;;;;;;;;;;;;;17.52;41.43;98919.22;5060991;28;1190;-57
2023/12/23 10:30:48;;;;;;;;;;;;;;;16.65;43.14;98923.47;5056642;28;2015;-55
2023/12/23 10:33:14;;;;;;;;;;;;;;;16.09;44.43;98923.13;5070878;28;1035;-57
2023/12/23 10:35:42;;;;;;;;;;;;;;;15.97;44.79;98926.44;5066448;28;1075;-58
2023/12/23 10:38:07;;;;;;;;;;;;;;;17.12;42.45;98908.38;5070225;28;1084;-57
2023/12/23 10:40:33;;;;;;;;;;;;;;;17.04;42.42;98919.06;5048377;28;916;-58
2023/12/23 10:43:00;;;;;;;;;;;;;;;16.32;43.93;98923.84;5060415;28;2723;-58
2023/12/23 10:45:25;;;;;;;;;;;;;;;15.94;44.73;98899.66;5077979;28;1023;-58
2023/12/23 10:47:51;;;;;;;;;;;;;;;16.94;42.66;98894.63;5059565;28;1086;-57
2023/12/23 10:50:17;;;;;;;;;;;;;;;17.22;41.82;98910.81;5059075;28;1917;-56
2023/12/23 10:52:42;;;;;;;;;;;;;;;16.37;43.61;98925.66;5072468;28;1132;-58
2023/12/23 10:55:08;;;;;;;;;;;;;;;15.99;44.72;98921.47;5078062;28;1173;-56
2023/12/23 10:57:33;;;;;;;;;;;;;;;16.48;43.69;98948.09;5054947;28;1091;-58
2023/12/23 10:59:59;;;;;;;;;;;;;;;17.41;41.32;98981.91;5063903;28;1099;-59
2023/12/23 11:02:31;;;;;;;;;;;;;;;16.40;43.42;98986.16;5076571;28;1012;-59
2023/12/23 11:04:58;;;;;;;;;;;;;;;16.10;44.27;98996.00;5066922;28;1139;-57
2023/12/23 11:07:30;;;;;;;;;;;;;;;16.01;44.73;98987.72;5074829;28;1800;-53
2023/12/23 11:09:58;;;;;;;;;;;;;;;17.49;41.44;99005.00;5063752;28;1970;-57
2023/12/23 11:12:24;;;;;;;;;;;;;;;16.59;43.00;99010.63;5067521;28;2533;-57
2023/12/23 11:14:49;;;;;;;;;;;;;;;16.13;44.17;99000.06;5053181;28;1059;-56
2023/12/23 11:17:25;;;;;;;;;;;;;;;15.93;44.73;99009.63;5057868;28;849;-56
2023/12/23 11:19:50;;;;;;;;;;;;;;;17.50;41.44;99018.47;5044819;28;1061;-54
2023/12/23 11:22:19;;;;;;;;;;;;;;;16.83;42.66;99022.31;5078470;28;1185;-57
2023/12/23 11:24:45;;;;;;;;;;;;;;;16.25;44.07;99024.97;5077641;28;1429;-57
2023/12/23 11:27:21;;;;;;;;;;;;;;;16.00;44.45;99013.53;5078116;28;1183;-57
2023/12/23 11:29:47;;;;;;;;;;;;;;;16.55;43.40;99030.75;5046305;28;1913;-58
2023/12/23 11:32:13;;;;;;;;;;;;;;;17.54;41.16;99026.84;5077991;28;1059;-57
2023/12/23 11:34:39;;;;;;;;;;;;;;;16.56;43.00;99024.16;5077349;28;1147;-58
2023/12/23 11:37:05;;;;;;;;;;;;;;;16.10;44.23;99014.41;5064975;28;1011;-58
2023/12/23 11:39:30;;;;;;;;;;;;;;;15.80;44.98;99019.53;5069741;28;1143;-58
2023/12/23 11:41:56;;;;;;;;;;;;;;;16.68;43.14;99027.13;5053838;28;1922;-57
2023/12/23 11:44:21;;;;;;;;;;;;;;;17.39;41.18;99015.22;5077717;28;1131;-57
2023/12/23 11:46:47;;;;;;;;;;;;;;;16.46;43.42;99019.75;5046253;28;1067;-60
2023/12/23 11:49:12;;;;;;;;;;;;;;;16.02;44.52;99014.03;5077502;28;1973;-58
2023/12/23 11:51:39;;;;;;;;;;;;;;;16.19;44.36;99018.81;5076660;28;1143;-58
2023/12/23 11:54:04;;;;;;;;;;;;;;;17.59;40.93;99005.50;5072666;28;864;-49
2023/12/23 11:56:30;;;;;;;;;;;;;;;16.64;43.07;99000.63;5071206;28;1091;-53
2023/12/23 11:58:55;;;;;;;;;;;;;;;16.21;43.94;98993.81;5040088;28;1009;-55
2023/12/23 12:01:20;;;;;;;;;;;;;;;15.85;44.84;98994.72;5075578;28;1115;-53
2023/12/23 12:03:49;;;;;;;;;;;;;;;16.74;42.95;99000.34;5071315;28;1500;-58
2023/12/23 12:06:14;;;;;;;;;;;;;;;17.49;41.15;98996.78;5076981;28;999;-56
2023/12/23 12:08:40;;;;;;;;;;;;;;;16.51;43.30;98994.94;5076204;28;1349;-55
2023/12/23 12:11:06;;;;;;;;;;;;;;;16.16;44.07;98986.53;5055021;28;2569;-52
2023/12/23 12:13:31;;;;;;;;;;;;;;;15.91;44.56;98977.03;5040002;28;1040;-54
2023/12/23 12:15:57;;;;;;;;;;;;;;;16.45;43.35;98971.50;5051441;28;1148;-56
2023/12/23 12:18:22;;;;;;;;;;;;;;;17.56;40.99;98988.88;5063543;28;1115;-55
2023/12/23 12:20:48;;;;;;;;;;;;;;;16.57;42.80;99003.84;5064712;28;1087;-51
2023/12/23 12:23:13;;;;;;;;;;;;;;;16.10;44.26;99012.44;5075825;28;1147;-52
2023/12/23 12:25:41;;;;;;;;;;;;;;;15.94;44.61;99024.94;5058847;28;1016;-51
2023/12/23 12:28:06;;;;;;;;;;;;;;;17.47;41.32;99021.03;5045292;28;1476;-54
2023/12/23 12:30:32;;;;;;;;;;;;;;;16.90;42.46;99029.00;5053112;28;1973;-53
2023/12/23 12:32:58;;;;;;;;;;;;;;;16.29;43.60;99042.41;5076266;28;1201;-52
2023/12/23 12:35:23;;;;;;;;;;;;;;;15.96;44.64;99037.19;5063087;28;1071;-54
2023/12/23 12:37:49;;;;;;;;;;;;;;;16.33;43.88;99031.66;5076361;28;1070;-52
2023/12/23 12:40:16;;;;;;;;;;;;;;;17.56;40.96;99044.63;5058195;28;1075;-55
2023/12/23 12:42:45;;;;;;;;;;;;;;;16.59;43.05;99059.19;5072989;28;2502;-53
2023/12/23 12:45:11;;;;;;;;;;;;;;;16.17;43.99;99044.91;5075947;28;1078;-54
2023/12/23 12:47:37;;;;;;;;;;;;;;;15.91;44.45;99048.31;5075914;28;984;-52
2023/12/23 12:50:03;;;;;;;;;;;;;;;16.84;42.61;99052.19;5058357;28;1980;-55